Time;durP1;ratioP1;P1;durP2;ratioP2;P2;SDS_P1;SDS_P2;PMS_P1;PMS_P2;Temp;Humidity;BMP_temperature;BMP_pressure;BME280_temperature;BME280_humidity;BME280_pressure;Samples;Min_cycle;Max_cycle;Signal;HPM_P1;HPM_P2
2023/03/03 00:00:31;;;;;;;;;;;1.40;99.90;;;;;;5025278;28;19971;-68
2023/03/03 00:02:59;;;;;;;;;;;1.40;99.90;;;;;;5028882;28;20378;-68
2023/03/03 00:05:26;;;;;;;;;;;1.30;99.90;;;;;;5027478;28;19980;-68
2023/03/03 00:07:54;;;;;;;;;;;1.40;99.90;;;;;;5027793;28;20000;-67
2023/03/03 00:10:21;;;;;;;;;;;1.30;99.90;;;;;;5023728;28;19979;-67
2023/03/03 00:12:48;;;;;;;;;;;1.20;99.90;;;;;;5025778;28;19925;-67
2023/03/03 00:15:17;;;;;;;;;;;1.20;99.90;;;;;;5030403;28;19975;-67
2023/03/03 00:17:44;;;;;;;;;;;1.20;99.90;;;;;;5028992;28;19929;-67
2023/03/03 00:20:27;;;;;;;;;;;1.30;99.90;;;;;;5027387;28;19931;-67
2023/03/03 00:22:55;;;;;;;;;;;1.20;99.90;;;;;;5030083;28;19999;-68
2023/03/03 00:25:27;;;;;;;;;;;1.20;99.90;;;;;;5028088;28;20780;-67
2023/03/03 00:27:54;;;;;;;;;;;1.20;99.90;;;;;;5028735;28;19968;-68
2023/03/03 00:30:24;;;;;;;;;;;1.20;99.90;;;;;;5025276;28;20008;-67
2023/03/03 00:32:52;;;;;;;;;;;1.10;99.90;;;;;;5028160;28;20308;-67
2023/03/03 00:35:24;;;;;;;;;;;1.00;99.90;;;;;;5024480;28;19971;-68
2023/03/03 00:37:53;;;;;;;;;;;1.10;99.90;;;;;;5025639;28;19979;-67
2023/03/03 00:40:22;;;;;;;;;;;1.10;99.90;;;;;;5024856;28;19932;-68
2023/03/03 00:42:50;;;;;;;;;;;1.10;99.90;;;;;;5021897;28;20443;-68
2023/03/03 00:45:22;;;;;;;;;;;1.10;99.90;;;;;;5026008;28;19925;-68
2023/03/03 00:47:49;;;;;;;;;;;1.10;99.90;;;;;;5031193;28;20054;-68
2023/03/03 00:50:20;;;;;;;;;;;1.10;99.90;;;;;;5030546;28;19979;-68
2023/03/03 00:52:53;;;;;;;;;;;1.20;99.90;;;;;;5028264;28;19986;-68
2023/03/03 00:55:21;;;;;;;;;;;1.10;99.90;;;;;;5019337;28;19925;-66
2023/03/03 00:57:48;;;;;;;;;;;1.00;99.90;;;;;;5027925;28;19961;-68
2023/03/03 01:00:15;;;;;;;;;;;1.00;99.90;;;;;;5038437;28;20488;-67
2023/03/03 01:02:45;;;;;;;;;;;1.00;99.90;;;;;;5028246;28;19925;-68
2023/03/03 01:05:13;;;;;;;;;;;1.00;99.90;;;;;;5029865;28;20431;-67
2023/03/03 01:07:40;;;;;;;;;;;1.00;99.90;;;;;;5022563;28;19932;-66
2023/03/03 01:10:07;;;;;;;;;;;0.90;99.90;;;;;;5029059;28;19929;-67
2023/03/03 01:12:35;;;;;;;;;;;0.90;99.90;;;;;;5030386;28;19925;-66
2023/03/03 01:15:02;;;;;;;;;;;1.00;99.90;;;;;;5027966;28;19929;-67
2023/03/03 01:17:28;;;;;;;;;;;0.90;99.90;;;;;;5024418;28;20028;-68
2023/03/03 01:19:55;;;;;;;;;;;1.00;99.90;;;;;;5025508;28;19929;-68
2023/03/03 01:22:22;;;;;;;;;;;1.00;99.90;;;;;;5026141;28;19935;-69
2023/03/03 01:24:48;;;;;;;;;;;1.00;99.90;;;;;;5026960;28;19925;-68
2023/03/03 01:27:15;;;;;;;;;;;0.90;99.90;;;;;;5024310;28;20011;-69
2023/03/03 01:29:43;;;;;;;;;;;0.90;99.90;;;;;;5031638;28;20412;-68
2023/03/03 01:32:10;;;;;;;;;;;0.90;99.90;;;;;;5031896;28;20015;-68
2023/03/03 01:34:37;;;;;;;;;;;0.90;99.90;;;;;;5027881;28;19972;-68
2023/03/03 01:37:03;;;;;;;;;;;0.90;99.90;;;;;;5030892;28;20011;-68
2023/03/03 01:39:30;;;;;;;;;;;0.90;99.90;;;;;;5036122;28;19924;-68
2023/03/03 01:41:57;;;;;;;;;;;0.80;99.90;;;;;;5030916;28;19944;-68
2023/03/03 01:44:24;;;;;;;;;;;0.80;99.90;;;;;;5031644;28;19925;-67
2023/03/03 01:46:54;;;;;;;;;;;0.90;99.90;;;;;;5020256;28;19929;-68
2023/03/03 01:49:22;;;;;;;;;;;0.80;99.90;;;;;;5027890;28;19964;-68
2023/03/03 01:51:51;;;;;;;;;;;0.80;99.90;;;;;;5026779;28;19925;-68
2023/03/03 01:54:20;;;;;;;;;;;0.70;99.90;;;;;;5031852;28;19925;-68
2023/03/03 01:56:48;;;;;;;;;;;0.70;99.90;;;;;;5029355;28;19932;-68
2023/03/03 01:59:18;;;;;;;;;;;0.60;99.90;;;;;;5029094;28;20454;-68
2023/03/03 02:01:45;;;;;;;;;;;0.50;99.90;;;;;;5031035;28;19931;-68
2023/03/03 02:04:14;;;;;;;;;;;0.40;99.90;;;;;;5033024;28;19980;-68
2023/03/03 02:06:42;;;;;;;;;;;0.50;99.90;;;;;;5024548;28;21979;-68
2023/03/03 02:09:11;;;;;;;;;;;0.40;99.90;;;;;;5030172;28;19925;-69
2023/03/03 02:11:39;;;;;;;;;;;0.40;99.90;;;;;;5036388;28;19960;-68
2023/03/03 02:14:06;;;;;;;;;;;0.40;99.90;;;;;;5035257;28;19968;-68
2023/03/03 02:16:32;;;;;;;;;;;0.30;99.90;;;;;;5029383;28;20007;-68
2023/03/03 02:18:59;;;;;;;;;;;0.30;99.90;;;;;;5029568;28;19929;-68
2023/03/03 02:21:28;;;;;;;;;;;0.30;99.90;;;;;;5024925;28;19925;-68
2023/03/03 02:24:00;;;;;;;;;;;0.30;99.90;;;;;;5021314;28;19925;-68
2023/03/03 02:26:29;;;;;;;;;;;0.20;99.90;;;;;;5029103;28;20392;-67
2023/03/03 02:28:56;;;;;;;;;;;0.20;99.90;;;;;;5032011;28;20335;-67
2023/03/03 02:31:24;;;;;;;;;;;0.20;99.90;;;;;;5028517;28;20011;-68
2023/03/03 02:33:52;;;;;;;;;;;0.10;99.90;;;;;;5028244;28;20347;-67
2023/03/03 02:36:20;;;;;;;;;;;0.10;99.90;;;;;;5027132;28;20002;-67
2023/03/03 02:38:50;;;;;;;;;;;0.10;99.90;;;;;;5030155;28;19925;-67
2023/03/03 02:41:21;;;;;;;;;;;0.20;99.90;;;;;;5028633;28;20519;-67
2023/03/03 02:43:52;;;;;;;;;;;0.40;99.90;;;;;;5031169;28;20012;-67
2023/03/03 02:46:19;;;;;;;;;;;0.40;99.90;;;;;;5026577;28;19934;-67
2023/03/03 02:48:46;;;;;;;;;;;0.50;99.90;;;;;;5031747;28;20067;-67
2023/03/03 02:51:12;;;;;;;;;;;0.50;99.90;;;;;;5030718;28;19998;-68
2023/03/03 02:53:39;;;;;;;;;;;0.50;99.90;;;;;;5030826;28;19947;-68
2023/03/03 02:56:08;;;;;;;;;;;0.50;99.90;;;;;;5027183;28;20114;-68
2023/03/03 02:58:35;;;;;;;;;;;0.50;99.90;;;;;;5030286;28;19964;-68
2023/03/03 03:01:03;;;;;;;;;;;0.40;99.90;;;;;;5030498;28;19988;-67
2023/03/03 03:03:30;;;;;;;;;;;0.40;99.90;;;;;;5023923;28;20484;-68
2023/03/03 03:05:57;;;;;;;;;;;0.40;99.90;;;;;;5030011;28;20027;-68
2023/03/03 03:08:23;;;;;;;;;;;0.30;99.90;;;;;;5030915;28;20020;-68
2023/03/03 03:10:50;;;;;;;;;;;0.20;99.90;;;;;;5030123;28;20018;-68
2023/03/03 03:13:17;;;;;;;;;;;0.20;99.90;;;;;;5030944;28;19925;-67
2023/03/03 03:15:45;;;;;;;;;;;0.30;99.90;;;;;;5029757;28;20037;-68
2023/03/03 03:18:13;;;;;;;;;;;0.20;99.90;;;;;;5029021;28;19929;-68
2023/03/03 03:20:40;;;;;;;;;;;0.20;99.90;;;;;;5029439;28;19925;-67
2023/03/03 03:23:07;;;;;;;;;;;0.20;99.90;;;;;;5028383;28;19980;-68
2023/03/03 03:25:34;;;;;;;;;;;0.10;99.90;;;;;;5024151;28;19971;-68
2023/03/03 03:28:02;;;;;;;;;;;0.00;99.90;;;;;;5027960;28;20402;-68
2023/03/03 03:30:28;;;;;;;;;;;0.00;99.90;;;;;;5031393;28;19987;-69
2023/03/03 03:32:55;;;;;;;;;;;0.10;99.90;;;;;;5031567;28;19969;-68
2023/03/03 03:35:23;;;;;;;;;;;0.10;99.90;;;;;;5027692;28;19925;-68
2023/03/03 03:37:50;;;;;;;;;;;0.10;99.90;;;;;;5030808;28;19932;-67
2023/03/03 03:40:17;;;;;;;;;;;0.10;99.90;;;;;;5024027;28;19925;-68
2023/03/03 03:42:43;;;;;;;;;;;0.10;99.90;;;;;;5036850;28;19925;-68
2023/03/03 03:45:14;;;;;;;;;;;0.20;99.90;;;;;;5031067;28;19944;-68
2023/03/03 03:47:40;;;;;;;;;;;0.20;99.90;;;;;;5032668;28;19937;-68
2023/03/03 03:50:08;;;;;;;;;;;0.30;99.90;;;;;;5033373;28;19925;-68
2023/03/03 03:52:36;;;;;;;;;;;0.30;99.90;;;;;;5031617;28;19957;-67
2023/03/03 03:55:03;;;;;;;;;;;0.20;99.90;;;;;;5024879;28;19933;-67
2023/03/03 03:57:29;;;;;;;;;;;0.30;99.90;;;;;;5037040;28;19968;-67
2023/03/03 03:59:56;;;;;;;;;;;0.30;99.90;;;;;;5031918;28;19999;-67
2023/03/03 04:02:23;;;;;;;;;;;0.30;99.90;;;;;;5047641;28;19924;-66
2023/03/03 04:04:50;;;;;;;;;;;0.30;99.90;;;;;;5029657;28;20012;-67
2023/03/03 04:07:16;;;;;;;;;;;0.40;99.90;;;;;;5030302;28;19972;-67
2023/03/03 04:09:44;;;;;;;;;;;0.40;99.90;;;;;;5031184;28;20024;-67
2023/03/03 04:12:11;;;;;;;;;;;0.40;99.90;;;;;;5028900;28;19925;-67
2023/03/03 04:14:38;;;;;;;;;;;0.50;99.90;;;;;;5026040;28;19925;-68
2023/03/03 04:17:05;;;;;;;;;;;0.60;99.90;;;;;;5029362;28;19932;-69
2023/03/03 04:19:31;;;;;;;;;;;0.60;99.90;;;;;;5027125;28;20007;-68
2023/03/03 04:21:58;;;;;;;;;;;0.70;99.90;;;;;;5023446;28;19925;-67
2023/03/03 04:24:25;;;;;;;;;;;0.70;99.90;;;;;;5026951;28;20000;-68
2023/03/03 04:26:53;;;;;;;;;;;0.70;99.90;;;;;;5026111;28;20011;-68
2023/03/03 04:29:19;;;;;;;;;;;0.70;99.90;;;;;;5025266;28;20380;-68
2023/03/03 04:31:46;;;;;;;;;;;0.70;99.90;;;;;;5028311;28;20012;-69
2023/03/03 04:34:13;;;;;;;;;;;0.70;99.90;;;;;;5027695;28;19940;-67
2023/03/03 04:36:39;;;;;;;;;;;0.70;99.90;;;;;;5028557;28;19975;-68
2023/03/03 04:39:06;;;;;;;;;;;0.70;99.90;;;;;;5029804;28;20011;-68
2023/03/03 04:41:33;;;;;;;;;;;0.70;99.90;;;;;;5030135;28;20361;-68
2023/03/03 04:44:01;;;;;;;;;;;0.70;99.90;;;;;;5030727;28;19959;-68
2023/03/03 04:46:27;;;;;;;;;;;0.70;99.90;;;;;;5023875;28;19933;-68
2023/03/03 04:48:54;;;;;;;;;;;0.60;99.90;;;;;;5029196;28;19976;-69
2023/03/03 04:51:21;;;;;;;;;;;0.50;99.90;;;;;;5027349;28;20369;-71
2023/03/03 04:53:47;;;;;;;;;;;0.50;99.90;;;;;;5031637;28;20274;-69
2023/03/03 04:56:14;;;;;;;;;;;0.50;99.90;;;;;;5029186;28;20024;-69
2023/03/03 04:58:41;;;;;;;;;;;0.50;99.90;;;;;;5036034;28;20376;-68
2023/03/03 05:01:12;;;;;;;;;;;0.40;99.90;;;;;;5028920;28;19925;-68
2023/03/03 05:03:39;;;;;;;;;;;0.40;99.90;;;;;;5028607;28;20025;-68
2023/03/03 05:06:06;;;;;;;;;;;0.40;99.90;;;;;;5028329;28;19925;-68
2023/03/03 05:08:33;;;;;;;;;;;0.40;99.90;;;;;;5035085;28;20012;-69
2023/03/03 05:11:00;;;;;;;;;;;0.50;99.90;;;;;;5031822;28;19925;-69
2023/03/03 05:13:27;;;;;;;;;;;0.40;99.90;;;;;;5025068;28;19929;-68
2023/03/03 05:15:55;;;;;;;;;;;0.50;99.90;;;;;;5024475;28;19925;-68
2023/03/03 05:18:23;;;;;;;;;;;0.50;99.90;;;;;;5026723;28;19929;-68
2023/03/03 05:20:50;;;;;;;;;;;0.50;99.90;;;;;;5029058;28;20710;-69
2023/03/03 05:23:17;;;;;;;;;;;0.50;99.90;;;;;;5026915;28;19933;-69
2023/03/03 05:25:44;;;;;;;;;;;0.50;99.90;;;;;;5021509;28;19925;-69
2023/03/03 05:28:11;;;;;;;;;;;0.50;99.90;;;;;;5026414;28;20468;-68
2023/03/03 05:30:37;;;;;;;;;;;0.50;99.90;;;;;;5019317;28;19925;-69
2023/03/03 05:33:04;;;;;;;;;;;0.50;99.90;;;;;;5035853;28;19929;-68
2023/03/03 05:35:32;;;;;;;;;;;0.50;99.90;;;;;;5039580;28;19932;-69
2023/03/03 05:37:59;;;;;;;;;;;0.50;99.90;;;;;;5031968;28;19925;-69
2023/03/03 05:40:26;;;;;;;;;;;0.50;99.90;;;;;;5023453;28;21661;-68
2023/03/03 05:42:56;;;;;;;;;;;0.50;99.90;;;;;;5033013;28;19931;-70
2023/03/03 05:45:23;;;;;;;;;;;0.50;99.90;;;;;;5029982;28;20480;-68
2023/03/03 05:47:50;;;;;;;;;;;0.50;99.90;;;;;;5033353;28;19932;-69
2023/03/03 05:50:17;;;;;;;;;;;0.50;99.90;;;;;;5027815;28;19932;-70
2023/03/03 05:52:45;;;;;;;;;;;0.40;99.90;;;;;;5032860;28;19931;-67
2023/03/03 05:55:11;;;;;;;;;;;0.50;99.90;;;;;;5036234;28;19932;-68
2023/03/03 05:57:38;;;;;;;;;;;0.50;99.90;;;;;;5050913;28;20028;-69
2023/03/03 06:00:06;;;;;;;;;;;0.40;99.90;;;;;;5034770;28;19940;-68
2023/03/03 06:02:33;;;;;;;;;;;0.50;99.90;;;;;;5034423;28;20506;-68
2023/03/03 06:05:00;;;;;;;;;;;0.50;99.90;;;;;;5031663;28;19972;-68
2023/03/03 06:07:27;;;;;;;;;;;0.50;99.90;;;;;;5035397;28;20016;-68
2023/03/03 06:09:55;;;;;;;;;;;0.50;99.90;;;;;;5032778;28;19925;-69
2023/03/03 06:12:21;;;;;;;;;;;0.50;99.90;;;;;;5035587;28;19925;-68
2023/03/03 06:14:48;;;;;;;;;;;0.50;99.90;;;;;;5034290;28;20020;-68
2023/03/03 06:17:15;;;;;;;;;;;0.50;99.90;;;;;;5033235;28;20027;-68
2023/03/03 06:19:42;;;;;;;;;;;0.50;99.90;;;;;;5030669;28;19933;-67
2023/03/03 06:22:08;;;;;;;;;;;0.50;99.90;;;;;;5035503;28;19996;-68
2023/03/03 06:24:35;;;;;;;;;;;0.50;99.90;;;;;;5034635;28;19964;-72
2023/03/03 06:27:03;;;;;;;;;;;0.50;99.90;;;;;;5032357;28;19931;-69
2023/03/03 06:29:30;;;;;;;;;;;0.50;99.90;;;;;;5028165;28;19925;-67
2023/03/03 06:31:58;;;;;;;;;;;0.50;99.90;;;;;;5035205;28;19925;-69
2023/03/03 06:34:24;;;;;;;;;;;0.60;99.90;;;;;;5037102;28;19925;-67
2023/03/03 06:36:51;;;;;;;;;;;0.60;99.90;;;;;;5040780;28;20045;-67
2023/03/03 06:39:18;;;;;;;;;;;0.60;99.90;;;;;;5031627;28;19939;-68
2023/03/03 06:41:44;;;;;;;;;;;0.60;99.90;;;;;;5035858;28;19959;-69
2023/03/03 06:44:12;;;;;;;;;;;0.60;99.90;;;;;;5032502;28;19982;-68
2023/03/03 06:46:39;;;;;;;;;;;0.60;99.90;;;;;;5033753;28;19965;-68
2023/03/03 06:49:06;;;;;;;;;;;0.60;99.90;;;;;;5032336;28;20027;-68
2023/03/03 06:51:34;;;;;;;;;;;0.60;99.90;;;;;;5033284;28;19925;-69
2023/03/03 06:54:02;;;;;;;;;;;0.70;99.90;;;;;;5041245;28;20005;-69
2023/03/03 06:56:29;;;;;;;;;;;0.70;99.90;;;;;;5031100;28;19931;-69
2023/03/03 06:58:56;;;;;;;;;;;0.70;99.90;;;;;;5031225;28;19925;-68
2023/03/03 07:01:24;;;;;;;;;;;0.70;99.90;;;;;;5023190;28;20054;-70
2023/03/03 07:03:51;;;;;;;;;;;0.70;99.90;;;;;;5034178;28;19928;-69
2023/03/03 07:06:23;;;;;;;;;;;0.80;99.90;;;;;;5030256;28;20004;-69
2023/03/03 07:08:50;;;;;;;;;;;0.80;99.90;;;;;;5028782;28;19960;-68
2023/03/03 07:11:18;;;;;;;;;;;0.80;99.90;;;;;;5028737;28;20002;-70
2023/03/03 07:13:48;;;;;;;;;;;0.80;99.90;;;;;;5027167;28;19933;-70
2023/03/03 07:16:16;;;;;;;;;;;0.80;99.90;;;;;;5027641;28;19933;-68
2023/03/03 07:18:47;;;;;;;;;;;0.90;99.90;;;;;;5020873;28;20042;-69
2023/03/03 07:21:16;;;;;;;;;;;0.90;99.90;;;;;;5022592;28;19960;-68
2023/03/03 07:23:43;;;;;;;;;;;0.90;99.90;;;;;;5033110;28;20361;-67
2023/03/03 07:26:12;;;;;;;;;;;1.00;99.90;;;;;;5034503;28;20013;-68
2023/03/03 07:28:40;;;;;;;;;;;1.00;99.90;;;;;;5034900;28;19933;-64
2023/03/03 07:31:16;;;;;;;;;;;1.00;99.90;;;;;;5027842;28;20002;-68
2023/03/03 07:33:45;;;;;;;;;;;1.00;99.90;;;;;;5019799;28;20065;-69
2023/03/03 07:36:22;;;;;;;;;;;1.00;99.90;;;;;;5026417;28;19975;-69
2023/03/03 07:38:51;;;;;;;;;;;1.00;99.90;;;;;;5032735;28;19983;-70
2023/03/03 07:41:19;;;;;;;;;;;1.00;99.90;;;;;;5033349;28;20006;-67
2023/03/03 07:43:49;;;;;;;;;;;1.10;99.90;;;;;;5037919;28;20403;-69
2023/03/03 07:46:27;;;;;;;;;;;1.00;99.90;;;;;;5039179;28;19933;-67
2023/03/03 07:48:56;;;;;;;;;;;1.00;99.90;;;;;;5027486;28;19929;-68
2023/03/03 07:51:26;;;;;;;;;;;1.10;99.90;;;;;;5027899;28;20862;-67
2023/03/03 07:53:55;;;;;;;;;;;1.00;99.90;;;;;;5025035;28;19933;-68
2023/03/03 07:56:26;;;;;;;;;;;1.00;99.90;;;;;;5028736;28;19925;-69
2023/03/03 07:58:54;;;;;;;;;;;1.00;99.90;;;;;;5026018;28;19924;-69
2023/03/03 08:01:31;;;;;;;;;;;0.90;99.90;;;;;;5015233;28;20031;-70
2023/03/03 08:04:00;;;;;;;;;;;0.90;99.90;;;;;;5017687;28;19925;-67
2023/03/03 08:06:35;;;;;;;;;;;0.80;99.90;;;;;;5021039;28;20384;-69
2023/03/03 08:09:13;;;;;;;;;;;0.80;99.90;;;;;;5030193;28;19931;-67
2023/03/03 08:11:41;;;;;;;;;;;0.80;99.90;;;;;;5030918;28;19925;-69
2023/03/03 08:14:10;;;;;;;;;;;0.90;99.90;;;;;;5026381;28;20376;-68
2023/03/03 08:16:37;;;;;;;;;;;0.90;99.90;;;;;;5019257;28;19929;-68
2023/03/03 08:19:06;;;;;;;;;;;0.90;99.90;;;;;;5034550;28;19932;-68
2023/03/03 08:21:33;;;;;;;;;;;0.90;99.90;;;;;;5024562;28;19961;-68
2023/03/03 08:24:00;;;;;;;;;;;0.90;99.90;;;;;;5029589;28;19934;-69
2023/03/03 08:26:27;;;;;;;;;;;1.00;99.90;;;;;;5025641;28;20335;-68
2023/03/03 08:28:54;;;;;;;;;;;1.10;99.90;;;;;;5018739;28;19925;-68
2023/03/03 08:31:21;;;;;;;;;;;1.10;99.90;;;;;;5025520;28;20024;-68
2023/03/03 08:33:47;;;;;;;;;;;1.10;99.90;;;;;;5013585;28;20305;-68
2023/03/03 08:36:15;;;;;;;;;;;1.10;99.90;;;;;;5026098;28;20385;-68
2023/03/03 08:38:42;;;;;;;;;;;1.20;99.90;;;;;;5028733;28;19932;-68
2023/03/03 08:41:09;;;;;;;;;;;1.20;99.90;;;;;;5017034;28;19925;-68
2023/03/03 08:43:36;;;;;;;;;;;1.20;99.90;;;;;;5024799;28;19925;-67
2023/03/03 08:46:04;;;;;;;;;;;1.20;99.90;;;;;;5020160;28;19972;-68
2023/03/03 08:48:30;;;;;;;;;;;1.30;99.90;;;;;;5021687;28;19925;-68
2023/03/03 08:50:57;;;;;;;;;;;1.30;99.90;;;;;;5023334;28;19933;-67
2023/03/03 08:53:26;;;;;;;;;;;1.50;99.90;;;;;;5026154;28;20059;-67
2023/03/03 08:55:54;;;;;;;;;;;1.50;99.90;;;;;;5024694;28;19979;-67
2023/03/03 08:58:21;;;;;;;;;;;1.50;99.90;;;;;;5022158;28;19929;-69
2023/03/03 09:00:48;;;;;;;;;;;1.40;99.90;;;;;;5028486;28;19925;-67
2023/03/03 09:03:15;;;;;;;;;;;1.40;99.90;;;;;;5027260;28;19925;-67
2023/03/03 09:05:43;;;;;;;;;;;1.50;99.90;;;;;;5024271;28;19926;-68
2023/03/03 09:08:13;;;;;;;;;;;1.50;99.90;;;;;;5021759;28;20589;-68
2023/03/03 09:10:41;;;;;;;;;;;1.50;99.90;;;;;;5017096;28;19944;-67
2023/03/03 09:13:12;;;;;;;;;;;1.50;99.90;;;;;;5022480;28;19955;-66
2023/03/03 09:15:38;;;;;;;;;;;1.50;99.90;;;;;;5029109;28;19940;-67
2023/03/03 09:18:13;;;;;;;;;;;1.60;99.90;;;;;;5023848;28;20475;-68
2023/03/03 09:20:40;;;;;;;;;;;1.60;99.90;;;;;;5024356;28;20348;-72
2023/03/03 09:23:34;;;;;;;;;;;1.70;99.90;;;;;;5027973;28;20311;-68
2023/03/03 09:26:20;;;;;;;;;;;1.70;99.90;;;;;;4980321;28;19925;-68
2023/03/03 09:28:48;;;;;;;;;;;1.70;99.90;;;;;;5018685;28;19933;-68
2023/03/03 09:31:20;;;;;;;;;;;1.70;99.90;;;;;;5027431;28;19932;-68
2023/03/03 09:33:53;;;;;;;;;;;1.80;99.90;;;;;;5025591;28;19925;-72
2023/03/03 09:36:23;;;;;;;;;;;1.80;99.90;;;;;;5028369;28;20008;-70
2023/03/03 09:38:49;;;;;;;;;;;1.90;99.90;;;;;;5018314;28;19980;-73
2023/03/03 09:41:27;;;;;;;;;;;1.90;99.90;;;;;;5026105;28;20399;-69
2023/03/03 09:44:12;;;;;;;;;;;2.10;99.90;;;;;;5029527;28;19925;-69
2023/03/03 09:46:44;;;;;;;;;;;2.10;99.90;;;;;;5012077;28;19929;-69
2023/03/03 09:49:18;;;;;;;;;;;2.00;99.90;;;;;;5039666;28;19925;-70
2023/03/03 09:51:55;;;;;;;;;;;2.10;99.90;;;;;;5020198;28;19926;-69
2023/03/03 09:54:27;;;;;;;;;;;2.20;99.90;;;;;;5024527;28;19967;-69
2023/03/03 09:56:59;;;;;;;;;;;2.20;99.90;;;;;;5018246;28;19932;-67
2023/03/03 09:59:38;;;;;;;;;;;2.20;99.90;;;;;;5016663;28;20394;-70
2023/03/03 10:02:19;;;;;;;;;;;2.20;99.90;;;;;;5021093;28;19959;-70
2023/03/03 10:05:04;;;;;;;;;;;2.30;99.90;;;;;;5032417;28;20306;-70
2023/03/03 10:07:39;;;;;;;;;;;2.30;99.90;;;;;;5024794;28;19931;-69
2023/03/03 10:10:29;;;;;;;;;;;2.50;99.90;;;;;;5026996;28;19925;-69
2023/03/03 10:13:03;;;;;;;;;;;2.50;99.90;;;;;;5024398;28;19936;-69
2023/03/03 10:15:38;;;;;;;;;;;2.60;99.90;;;;;;5019802;28;19941;-70
2023/03/03 10:18:11;;;;;;;;;;;2.70;99.90;;;;;;5031364;28;19929;-69
2023/03/03 10:20:43;;;;;;;;;;;2.60;99.90;;;;;;5026358;28;22300;-69
2023/03/03 10:23:19;;;;;;;;;;;2.70;99.90;;;;;;5031300;28;19948;-69
2023/03/03 10:25:51;;;;;;;;;;;2.60;99.90;;;;;;5025299;28;19933;-68
2023/03/03 10:28:29;;;;;;;;;;;2.60;99.90;;;;;;5032363;28;19925;-68
2023/03/03 10:31:03;;;;;;;;;;;2.70;99.90;;;;;;5023543;28;20365;-69
2023/03/03 10:33:35;;;;;;;;;;;2.90;99.90;;;;;;5027052;28;20644;-68
2023/03/03 10:36:16;;;;;;;;;;;2.80;99.90;;;;;;5031751;28;24338;-68
2023/03/03 10:38:50;;;;;;;;;;;2.80;99.90;;;;;;5037976;28;19940;-69
2023/03/03 10:41:23;;;;;;;;;;;2.90;99.90;;;;;;5020522;28;19925;-67
2023/03/03 10:44:01;;;;;;;;;;;2.90;99.90;;;;;;5045213;28;19926;-67
2023/03/03 10:46:39;;;;;;;;;;;2.90;99.90;;;;;;5035587;28;19929;-67
2023/03/03 10:49:15;;;;;;;;;;;3.00;99.90;;;;;;5027935;28;19961;-67
2023/03/03 10:51:52;;;;;;;;;;;2.90;99.90;;;;;;5017798;28;19981;-67
2023/03/03 10:54:29;;;;;;;;;;;3.10;99.90;;;;;;5029662;28;20281;-67
2023/03/03 10:57:01;;;;;;;;;;;3.20;99.90;;;;;;5034948;28;20350;-67
2023/03/03 10:59:36;;;;;;;;;;;3.20;99.90;;;;;;5029957;28;20009;-67
2023/03/03 11:02:06;;;;;;;;;;;3.30;99.90;;;;;;5027446;28;19980;-68
2023/03/03 11:04:43;;;;;;;;;;;3.40;99.90;;;;;;5031355;28;19947;-68
2023/03/03 11:07:11;;;;;;;;;;;3.10;99.90;;;;;;5033371;28;19931;-67
2023/03/03 11:09:42;;;;;;;;;;;3.30;99.90;;;;;;5035749;28;19933;-67
2023/03/03 11:12:12;;;;;;;;;;;3.30;99.90;;;;;;5027481;28;19964;-67
2023/03/03 11:14:46;;;;;;;;;;;3.50;99.90;;;;;;5027220;28;20328;-68
2023/03/03 11:17:15;;;;;;;;;;;3.50;99.90;;;;;;5020988;28;19932;-68
2023/03/03 11:19:52;;;;;;;;;;;3.70;99.90;;;;;;5026529;28;19929;-68
2023/03/03 11:22:29;;;;;;;;;;;3.80;99.90;;;;;;5036903;28;20018;-68
2023/03/03 11:25:01;;;;;;;;;;;4.00;99.90;;;;;;5026346;28;20424;-69
2023/03/03 11:27:39;;;;;;;;;;;3.90;99.90;;;;;;5022676;28;19933;-68
2023/03/03 11:30:15;;;;;;;;;;;3.90;99.90;;;;;;5022621;28;20058;-68
2023/03/03 11:32:47;;;;;;;;;;;4.10;99.90;;;;;;5026924;28;19925;-68
2023/03/03 11:35:22;;;;;;;;;;;3.90;99.90;;;;;;5030568;28;19925;-68
2023/03/03 11:37:55;;;;;;;;;;;3.60;99.90;;;;;;5031577;28;19965;-68
2023/03/03 11:40:25;;;;;;;;;;;3.60;99.90;;;;;;5032417;28;19929;-68
2023/03/03 11:42:57;;;;;;;;;;;3.60;99.90;;;;;;5020601;28;20435;-68
2023/03/03 11:45:27;;;;;;;;;;;3.70;99.90;;;;;;5027886;28;19932;-67
2023/03/03 11:47:57;;;;;;;;;;;3.60;99.90;;;;;;5029712;28;19932;-68
2023/03/03 11:50:26;;;;;;;;;;;3.60;99.90;;;;;;5029862;28;19926;-68
2023/03/03 11:52:57;;;;;;;;;;;3.70;99.90;;;;;;5028561;28;19943;-68
2023/03/03 11:55:26;;;;;;;;;;;3.80;99.90;;;;;;5019955;28;19929;-68
2023/03/03 11:57:56;;;;;;;;;;;3.80;99.90;;;;;;5027453;28;20020;-67
2023/03/03 12:00:26;;;;;;;;;;;3.80;99.90;;;;;;5024009;28;19929;-68
2023/03/03 12:03:09;;;;;;;;;;;4.00;99.90;;;;;;5018911;28;19988;-68
2023/03/03 12:05:49;;;;;;;;;;;4.20;99.90;;;;;;5027112;28;19940;-69
2023/03/03 12:08:24;;;;;;;;;;;4.20;99.90;;;;;;5020901;28;19960;-68
2023/03/03 12:10:56;;;;;;;;;;;4.20;99.90;;;;;;5026371;28;19929;-68
2023/03/03 12:13:26;;;;;;;;;;;4.20;99.90;;;;;;5027690;28;19932;-67
2023/03/03 12:15:57;;;;;;;;;;;4.40;99.90;;;;;;5021974;28;20063;-69
2023/03/03 12:18:31;;;;;;;;;;;4.40;99.90;;;;;;5024603;28;19925;-69
2023/03/03 12:21:05;;;;;;;;;;;4.40;99.90;;;;;;5017592;28;20029;-68
2023/03/03 12:23:39;;;;;;;;;;;4.40;99.90;;;;;;5020544;28;19988;-69
2023/03/03 12:26:08;;;;;;;;;;;4.20;99.90;;;;;;5033126;28;20024;-68
2023/03/03 12:28:37;;;;;;;;;;;4.20;99.90;;;;;;5026252;28;19967;-69
2023/03/03 12:31:22;;;;;;;;;;;4.40;99.90;;;;;;5020653;28;20351;-69
2023/03/03 12:33:55;;;;;;;;;;;4.10;99.90;;;;;;5026021;28;20036;-69
2023/03/03 12:36:43;;;;;;;;;;;4.30;99.90;;;;;;5019661;28;19933;-69
2023/03/03 12:39:15;;;;;;;;;;;4.50;99.90;;;;;;5026914;28;19933;-70
2023/03/03 12:41:45;;;;;;;;;;;4.60;99.90;;;;;;5030410;28;20516;-69
2023/03/03 12:44:15;;;;;;;;;;;4.70;99.90;;;;;;5026111;28;20028;-70
2023/03/03 12:46:45;;;;;;;;;;;4.90;99.90;;;;;;5023478;28;19925;-69
2023/03/03 12:49:12;;;;;;;;;;;4.80;99.90;;;;;;5021882;28;19925;-69
2023/03/03 12:51:50;;;;;;;;;;;4.90;99.90;;;;;;5024064;28;20587;-71
2023/03/03 12:54:32;;;;;;;;;;;4.90;99.90;;;;;;5019103;28;20424;-67
2023/03/03 12:57:04;;;;;;;;;;;5.00;99.90;;;;;;5021394;28;20693;-67
2023/03/03 12:59:35;;;;;;;;;;;5.20;99.90;;;;;;5026183;28;20042;-67
2023/03/03 13:02:18;;;;;;;;;;;5.30;99.90;;;;;;5021622;28;20351;-66
2023/03/03 13:04:48;;;;;;;;;;;5.40;99.90;;;;;;5035364;28;19933;-67
2023/03/03 13:07:26;;;;;;;;;;;5.40;99.90;;;;;;5023529;28;20391;-66
2023/03/03 13:10:03;;;;;;;;;;;5.40;99.90;;;;;;5025420;28;20010;-67
2023/03/03 13:12:32;;;;;;;;;;;5.20;99.90;;;;;;5024930;28;19933;-68
2023/03/03 13:15:03;;;;;;;;;;;5.20;99.90;;;;;;5026081;28;19925;-67
2023/03/03 13:17:32;;;;;;;;;;;5.60;99.90;;;;;;5022214;28;19925;-67
2023/03/03 13:20:00;;;;;;;;;;;5.50;99.90;;;;;;5021756;28;19925;-67
2023/03/03 13:22:34;;;;;;;;;;;5.50;99.90;;;;;;5026163;28;20385;-69
2023/03/03 13:25:06;;;;;;;;;;;5.70;99.90;;;;;;5020059;28;19972;-68
2023/03/03 13:27:36;;;;;;;;;;;5.40;99.90;;;;;;5019312;28;19932;-67
2023/03/03 13:30:04;;;;;;;;;;;5.60;99.90;;;;;;5019048;28;20377;-66
2023/03/03 13:32:36;;;;;;;;;;;5.50;99.90;;;;;;5020339;28;19933;-67
2023/03/03 13:35:06;;;;;;;;;;;5.70;99.90;;;;;;5026028;28;19987;-68
2023/03/03 13:37:36;;;;;;;;;;;6.00;99.90;;;;;;5026563;28;20440;-67
2023/03/03 13:40:07;;;;;;;;;;;6.10;99.90;;;;;;5014504;28;19925;-67
2023/03/03 13:42:38;;;;;;;;;;;6.10;99.90;;;;;;5021940;28;19987;-66
2023/03/03 13:45:12;;;;;;;;;;;6.20;99.90;;;;;;5021756;28;20352;-67
2023/03/03 13:47:42;;;;;;;;;;;6.40;99.90;;;;;;5024425;28;19929;-67
2023/03/03 13:50:14;;;;;;;;;;;6.50;99.90;;;;;;5023195;28;20403;-66
2023/03/03 13:52:43;;;;;;;;;;;6.60;99.90;;;;;;5033734;28;19925;-67
2023/03/03 13:55:17;;;;;;;;;;;6.40;99.90;;;;;;5025713;28;20016;-68
2023/03/03 13:57:45;;;;;;;;;;;6.30;99.90;;;;;;5029410;28;20016;-68
2023/03/03 14:00:18;;;;;;;;;;;6.10;99.90;;;;;;5025739;28;20406;-68
2023/03/03 14:02:52;;;;;;;;;;;6.10;99.90;;;;;;5038914;28;19926;-69
2023/03/03 14:05:24;;;;;;;;;;;6.10;99.90;;;;;;5028309;28;20007;-67
2023/03/03 14:07:53;;;;;;;;;;;6.00;99.90;;;;;;5027253;28;20023;-68
2023/03/03 14:10:24;;;;;;;;;;;6.10;99.90;;;;;;5033741;28;20392;-68
2023/03/03 14:12:57;;;;;;;;;;;6.20;99.90;;;;;;5031913;28;19951;-69
2023/03/03 14:15:26;;;;;;;;;;;6.30;99.90;;;;;;5034437;28;20372;-69
2023/03/03 14:18:05;;;;;;;;;;;6.40;99.90;;;;;;5031208;28;19928;-67
2023/03/03 14:20:34;;;;;;;;;;;6.60;99.90;;;;;;5026587;28;20008;-68
2023/03/03 14:23:02;;;;;;;;;;;6.70;99.90;;;;;;5028863;28;19925;-69
2023/03/03 14:25:51;;;;;;;;;;;6.50;99.90;;;;;;5027230;28;19924;-70
2023/03/03 14:28:23;;;;;;;;;;;6.50;99.90;;;;;;5031520;28;20167;-69
2023/03/03 14:30:52;;;;;;;;;;;6.60;99.90;;;;;;5015872;28;20315;-68
2023/03/03 14:33:20;;;;;;;;;;;6.80;99.90;;;;;;5031915;28;19925;-69
2023/03/03 14:35:51;;;;;;;;;;;6.70;99.90;;;;;;5024361;28;19969;-69
2023/03/03 14:38:20;;;;;;;;;;;6.90;99.90;;;;;;5025268;28;20420;-68
2023/03/03 14:40:49;;;;;;;;;;;6.80;99.90;;;;;;5021060;28;19930;-69
2023/03/03 14:43:21;;;;;;;;;;;6.90;99.90;;;;;;5024869;28;19937;-66
2023/03/03 14:45:48;;;;;;;;;;;6.70;99.90;;;;;;5025629;28;20393;-67